Time;durP1;ratioP1;P1;durP2;ratioP2;P2;SDS_P1;SDS_P2;PMS_P1;PMS_P2;Temp;Humidity;BMP_temperature;BMP_pressure;BME280_temperature;BME280_humidity;BME280_pressure;Samples;Min_cycle;Max_cycle;Signal;HPM_P1;HPM_P2
2023/06/17 00:01:53;;;;;;;11.57;11.17;;;14.50;99.90;;;;;;5100033;27;20459;-68
2023/06/17 00:04:21;;;;;;;12.67;12.17;;;14.30;99.90;;;;;;5110664;27;20569;-68
2023/06/17 00:06:48;;;;;;;10.97;10.57;;;14.20;99.90;;;;;;5123786;27;20457;-67
2023/06/17 00:09:16;;;;;;;11.23;10.83;;;14.10;99.90;;;;;;5118221;27;20492;-68
2023/06/17 00:11:43;;;;;;;10.80;10.40;;;14.10;99.90;;;;;;5102910;27;21068;-69
2023/06/17 00:14:10;;;;;;;9.83;9.53;;;14.10;99.90;;;;;;5122786;27;20954;-68
2023/06/17 00:16:43;;;;;;;10.93;10.53;;;14.10;99.90;;;;;;5116964;27;20480;-68
2023/06/17 00:19:13;;;;;;;10.63;10.23;;;14.00;99.90;;;;;;5112504;27;20984;-69
2023/06/17 00:21:41;;;;;;;10.97;10.57;;;14.00;99.90;;;;;;5105078;27;20975;-68
2023/06/17 00:24:08;;;;;;;11.17;10.77;;;13.90;99.90;;;;;;5101177;27;20456;-69
2023/06/17 00:26:36;;;;;;;10.80;10.40;;;13.90;99.90;;;;;;5116994;27;20460;-68
2023/06/17 00:29:03;;;;;;;10.40;10.00;;;13.90;99.90;;;;;;5110896;28;20481;-68
2023/06/17 00:31:30;;;;;;;10.17;9.80;;;13.90;99.90;;;;;;5110547;28;20821;-69
2023/06/17 00:33:58;;;;;;;10.07;9.77;;;13.80;99.90;;;;;;5105549;27;20888;-68
2023/06/17 00:36:27;;;;;;;10.27;9.87;;;13.80;99.90;;;;;;5120103;27;20472;-68
2023/06/17 00:38:55;;;;;;;10.57;10.17;;;13.80;99.90;;;;;;5092187;27;20553;-67
2023/06/17 00:41:22;;;;;;;10.47;10.07;;;13.70;99.90;;;;;;5111290;27;20457;-69
2023/06/17 00:43:50;;;;;;;11.57;11.07;;;13.70;99.90;;;;;;5116472;27;20514;-67
2023/06/17 00:46:25;;;;;;;9.60;9.30;;;13.60;99.90;;;;;;5113476;27;20456;-68
2023/06/17 00:48:52;;;;;;;9.73;9.43;;;13.60;99.90;;;;;;5105350;27;21072;-67
2023/06/17 00:51:20;;;;;;;10.40;10.00;;;13.50;99.90;;;;;;5100727;27;20995;-67
2023/06/17 00:53:47;;;;;;;9.73;9.43;;;13.40;99.90;;;;;;5101736;27;20855;-68
2023/06/17 00:56:17;;;;;;;9.77;9.47;;;13.30;99.90;;;;;;5102086;27;20461;-67
2023/06/17 00:58:45;;;;;;;10.20;9.80;;;13.30;99.90;;;;;;5123100;27;20860;-68
2023/06/17 01:01:13;;;;;;;9.77;9.47;;;13.20;99.90;;;;;;5104623;27;20461;-68
2023/06/17 01:03:40;;;;;;;9.27;8.97;;;13.20;99.90;;;;;;5116605;27;20879;-67
2023/06/17 01:06:19;;;;;;;10.33;9.97;;;13.10;99.90;;;;;;5112763;27;20468;-68
2023/06/17 01:08:57;;;;;;;9.40;9.10;;;13.10;99.90;;;;;;5096687;27;20478;-67
2023/06/17 01:11:26;;;;;;;9.03;8.73;;;13.10;99.90;;;;;;5104632;27;20473;-67
2023/06/17 01:13:56;;;;;;;9.17;8.87;;;13.10;99.90;;;;;;5110500;27;20502;-68
2023/06/17 01:16:25;;;;;;;8.60;8.30;;;13.10;99.90;;;;;;5113841;27;20481;-68
2023/06/17 01:18:53;;;;;;;9.40;9.10;;;13.20;99.90;;;;;;5121749;27;20464;-66
2023/06/17 01:21:22;;;;;;;8.23;7.93;;;13.20;99.90;;;;;;5096189;28;20466;-67
2023/06/17 01:23:52;;;;;;;8.87;8.57;;;13.10;99.90;;;;;;5117681;27;20563;-67
2023/06/17 01:26:22;;;;;;;8.53;8.23;;;13.10;99.90;;;;;;5115448;27;20461;-66
2023/06/17 01:28:48;;;;;;;8.37;8.07;;;13.00;99.90;;;;;;5105311;27;20489;-68
2023/06/17 01:31:18;;;;;;;8.67;8.37;;;13.00;99.90;;;;;;5104720;27;20452;-67
2023/06/17 01:33:48;;;;;;;8.17;7.87;;;12.80;99.90;;;;;;5119829;27;20456;-67
2023/06/17 01:36:20;;;;;;;8.13;7.83;;;12.70;99.90;;;;;;5114594;27;20483;-67
2023/06/17 01:38:51;;;;;;;8.00;7.70;;;12.60;99.90;;;;;;5105268;27;20816;-67
2023/06/17 01:41:24;;;;;;;8.17;7.87;;;12.60;99.90;;;;;;5108015;27;20926;-67
2023/06/17 01:43:52;;;;;;;8.73;8.43;;;12.60;99.90;;;;;;5109385;27;20909;-68
2023/06/17 01:46:20;;;;;;;7.10;6.90;;;12.50;99.90;;;;;;5100728;27;20464;-68
2023/06/17 01:48:47;;;;;;;8.50;8.20;;;12.50;99.90;;;;;;5102211;28;20489;-67
2023/06/17 01:51:16;;;;;;;7.67;7.47;;;12.40;99.90;;;;;;5122625;27;20461;-67
2023/06/17 01:53:43;;;;;;;7.67;7.47;;;12.40;99.90;;;;;;5097779;27;20514;-66
2023/06/17 01:56:10;;;;;;;8.53;8.23;;;12.30;99.90;;;;;;5100719;27;20491;-68
2023/06/17 01:58:39;;;;;;;7.90;7.67;;;12.40;99.90;;;;;;5118893;28;20452;-67
2023/06/17 02:01:06;;;;;;;8.43;8.13;;;12.30;99.90;;;;;;5106726;28;20579;-69
2023/06/17 02:03:34;;;;;;;8.07;7.77;;;12.20;99.90;;;;;;5111827;28;20575;-66
2023/06/17 02:06:01;;;;;;;8.30;8.00;;;12.30;99.90;;;;;;5098910;28;20469;-67
2023/06/17 02:08:29;;;;;;;7.67;7.47;;;12.20;99.90;;;;;;5112835;28;20495;-68
2023/06/17 02:10:56;;;;;;;7.97;7.77;;;12.10;99.90;;;;;;5114583;28;20473;-68
2023/06/17 02:13:23;;;;;;;8.27;7.97;;;12.10;99.90;;;;;;5114314;28;20970;-67
2023/06/17 02:15:51;;;;;;;8.00;7.70;;;12.10;99.90;;;;;;5093139;28;20529;-67
2023/06/17 02:18:18;;;;;;;8.13;7.83;;;12.10;99.90;;;;;;5100352;28;20518;-67
2023/06/17 02:20:48;;;;;;;7.63;7.43;;;12.20;99.90;;;;;;5112937;28;20460;-67
2023/06/17 02:23:15;;;;;;;8.10;7.80;;;12.10;99.90;;;;;;5097925;28;20454;-67
2023/06/17 02:25:42;;;;;;;8.37;8.07;;;12.10;99.90;;;;;;5100160;28;20976;-67
2023/06/17 02:28:09;;;;;;;8.07;7.77;;;12.10;99.90;;;;;;5117299;28;20461;-67
2023/06/17 02:30:36;;;;;;;8.37;8.07;;;12.10;99.90;;;;;;5117364;27;20888;-67
2023/06/17 02:33:05;;;;;;;8.17;7.87;;;12.10;99.90;;;;;;5098952;27;20490;-68
2023/06/17 02:35:33;;;;;;;8.60;8.30;;;12.00;99.90;;;;;;5107715;27;20463;-68
2023/06/17 02:38:00;;;;;;;8.63;8.33;;;11.90;99.90;;;;;;5107148;27;20456;-67
2023/06/17 02:40:27;;;;;;;7.63;7.43;;;11.90;99.90;;;;;;5118706;27;20472;-67
2023/06/17 02:42:54;;;;;;;7.80;7.57;;;11.90;99.90;;;;;;5119933;27;20453;-68
2023/06/17 02:45:21;;;;;;;8.53;8.23;;;11.90;99.90;;;;;;5099756;27;20473;-69
2023/06/17 02:47:48;;;;;;;7.30;7.10;;;11.90;99.90;;;;;;5121976;27;20546;-66
2023/06/17 02:50:23;;;;;;;8.13;7.83;;;11.90;99.90;;;;;;5109944;27;20577;-66
2023/06/17 02:52:55;;;;;;;8.90;8.60;;;11.80;99.90;;;;;;5105311;27;20842;-68
2023/06/17 02:55:25;;;;;;;8.40;8.10;;;11.90;99.90;;;;;;5108597;27;20968;-68
2023/06/17 02:57:53;;;;;;;7.37;7.17;;;12.00;99.90;;;;;;5117635;27;20869;-66
2023/06/17 03:00:21;;;;;;;7.40;7.20;;;12.00;99.90;;;;;;5114617;27;20453;-68
2023/06/17 03:02:49;;;;;;;8.00;7.70;;;11.90;99.90;;;;;;5124513;27;20460;-67
2023/06/17 03:05:18;;;;;;;7.93;7.63;;;11.80;99.90;;;;;;5110388;27;20464;-67
2023/06/17 03:07:45;;;;;;;8.27;7.97;;;11.70;99.90;;;;;;5102257;27;20454;-68
2023/06/17 03:10:12;;;;;;;8.50;8.20;;;11.60;99.90;;;;;;5106430;27;20492;-67
2023/06/17 03:12:39;;;;;;;8.40;8.10;;;11.60;99.90;;;;;;5104948;27;20464;-67
2023/06/17 03:15:08;;;;;;;8.37;8.07;;;11.60;99.90;;;;;;5120948;27;20448;-67
2023/06/17 03:17:35;;;;;;;8.80;8.50;;;11.50;99.90;;;;;;5108916;27;20479;-67
2023/06/17 03:20:06;;;;;;;8.70;8.40;;;11.50;99.90;;;;;;5122326;27;20499;-69
2023/06/17 03:22:35;;;;;;;8.70;8.40;;;11.60;99.90;;;;;;5091601;27;20878;-67
2023/06/17 03:25:02;;;;;;;8.37;8.07;;;11.70;99.90;;;;;;5099896;27;20809;-68
2023/06/17 03:27:29;;;;;;;8.37;8.07;;;11.70;99.90;;;;;;5122303;27;20734;-67
2023/06/17 03:29:56;;;;;;;8.50;8.20;;;11.80;99.90;;;;;;5116745;27;20863;-66
2023/06/17 03:32:24;;;;;;;8.70;8.40;;;11.70;99.90;;;;;;5099607;28;20952;-67
2023/06/17 03:34:52;;;;;;;8.67;8.37;;;11.80;99.90;;;;;;5097217;27;20821;-67
2023/06/17 03:37:19;;;;;;;8.83;8.53;;;11.70;99.90;;;;;;5120109;27;20456;-67
2023/06/17 03:39:48;;;;;;;8.33;8.03;;;11.70;99.90;;;;;;5108855;27;21007;-66
2023/06/17 03:42:16;;;;;;;8.20;7.90;;;11.70;99.90;;;;;;5098927;28;20466;-67
2023/06/17 03:44:44;;;;;;;8.23;7.93;;;11.70;99.90;;;;;;5103275;27;20706;-68
2023/06/17 03:47:11;;;;;;;8.53;8.23;;;11.80;99.90;;;;;;5117088;27;20464;-66
2023/06/17 03:49:38;;;;;;;8.63;8.33;;;11.70;99.90;;;;;;5117472;27;20491;-68
2023/06/17 03:52:06;;;;;;;8.20;7.90;;;11.70;99.90;;;;;;5091101;27;20957;-66
2023/06/17 03:54:33;;;;;;;8.60;8.30;;;11.60;99.90;;;;;;5114391;27;20457;-67
2023/06/17 03:57:03;;;;;;;8.20;7.90;;;11.70;99.90;;;;;;5121645;27;20505;-66
2023/06/17 03:59:30;;;;;;;8.83;8.53;;;11.70;99.90;;;;;;5116711;27;20460;-67
2023/06/17 04:01:57;;;;;;;8.93;8.63;;;11.60;99.90;;;;;;5108148;27;20473;-67
2023/06/17 04:04:24;;;;;;;8.60;8.30;;;11.60;99.90;;;;;;5120397;27;20456;-67
2023/06/17 04:06:51;;;;;;;8.57;8.27;;;11.70;99.90;;;;;;5107177;27;20948;-67
2023/06/17 04:09:18;;;;;;;8.47;8.17;;;11.70;99.90;;;;;;5117693;27;20503;-67
2023/06/17 04:11:45;;;;;;;8.40;8.10;;;11.80;99.90;;;;;;5102836;27;20472;-67
2023/06/17 04:14:14;;;;;;;8.50;8.20;;;11.90;99.90;;;;;;5120852;27;20460;-67
2023/06/17 04:16:41;;;;;;;10.07;9.70;;;11.90;99.90;;;;;;5115149;27;20476;-68
2023/06/17 04:19:09;;;;;;;8.53;8.23;;;12.00;99.90;;;;;;5112939;27;20482;-67
2023/06/17 04:21:36;;;;;;;8.97;8.67;;;12.00;99.90;;;;;;5102145;27;20533;-67
2023/06/17 04:24:03;;;;;;;9.10;8.80;;;12.00;99.90;;;;;;5102063;27;20507;-67
2023/06/17 04:26:30;;;;;;;8.63;8.33;;;12.10;99.90;;;;;;5109584;27;20482;-66
2023/06/17 04:28:58;;;;;;;9.00;8.70;;;12.20;99.90;;;;;;5109440;27;20456;-66
2023/06/17 04:31:27;;;;;;;9.17;8.87;;;12.10;99.90;;;;;;5111854;27;20460;-67
2023/06/17 04:33:54;;;;;;;11.20;10.53;;;11.90;99.90;;;;;;5096861;27;20545;-68
2023/06/17 04:36:21;;;;;;;8.70;8.40;;;12.00;99.90;;;;;;5109142;27;20465;-67
2023/06/17 04:38:49;;;;;;;8.50;8.20;;;12.00;99.90;;;;;;5119436;27;20544;-67
2023/06/17 04:41:17;;;;;;;8.60;8.30;;;12.00;99.90;;;;;;5113747;27;20494;-68
2023/06/17 04:43:45;;;;;;;8.73;8.43;;;12.10;99.90;;;;;;5094610;28;20462;-68
2023/06/17 04:46:13;;;;;;;8.60;8.30;;;12.20;99.90;;;;;;5096944;27;20460;-67
2023/06/17 04:48:42;;;;;;;8.70;8.40;;;12.30;99.90;;;;;;5108387;27;20512;-67
2023/06/17 04:51:09;;;;;;;8.53;8.23;;;12.40;99.90;;;;;;5101240;27;20490;-66
2023/06/17 04:53:38;;;;;;;9.13;8.83;;;12.50;99.90;;;;;;5089850;27;20475;-67
2023/06/17 04:56:06;;;;;;;8.80;8.50;;;12.60;99.90;;;;;;5098435;27;20607;-67
2023/06/17 04:58:33;;;;;;;8.50;8.20;;;12.80;99.90;;;;;;5109972;27;20473;-67
2023/06/17 05:01:00;;;;;;;8.63;8.33;;;12.90;99.90;;;;;;5106482;27;20456;-67
2023/06/17 05:03:27;;;;;;;8.87;8.57;;;13.00;99.90;;;;;;5095350;27;20457;-68
2023/06/17 05:05:55;;;;;;;8.87;8.57;;;13.10;99.90;;;;;;5097596;27;20833;-67
2023/06/17 05:08:22;;;;;;;8.50;8.20;;;13.30;99.90;;;;;;5108887;27;20469;-68
2023/06/17 05:10:49;;;;;;;9.13;8.83;;;13.50;99.90;;;;;;5099822;27;20491;-67
2023/06/17 05:13:17;;;;;;;9.10;8.80;;;13.70;99.90;;;;;;5104132;28;20449;-66
2023/06/17 05:15:44;;;;;;;9.50;9.20;;;13.90;99.90;;;;;;5092397;27;20991;-66
2023/06/17 05:18:11;;;;;;;9.73;9.43;;;14.00;99.90;;;;;;5105381;27;21193;-68
2023/06/17 05:20:38;;;;;;;9.80;9.50;;;14.20;99.90;;;;;;5092694;27;20971;-66
2023/06/17 05:23:06;;;;;;;9.40;9.10;;;14.40;99.90;;;;;;5096131;27;20484;-67
2023/06/17 05:25:33;;;;;;;10.37;9.97;;;14.60;99.90;;;;;;5092844;28;20462;-68
2023/06/17 05:28:00;;;;;;;10.30;9.90;;;14.80;99.90;;;;;;5118335;27;20996;-68
2023/06/17 05:30:27;;;;;;;10.37;9.97;;;15.00;99.90;;;;;;5105727;27;20584;-66
2023/06/17 05:32:54;;;;;;;10.00;9.70;;;15.20;99.90;;;;;;5093060;28;20960;-66
2023/06/17 05:35:21;;;;;;;10.87;10.47;;;15.20;99.90;;;;;;5090847;27;20960;-68
2023/06/17 05:37:48;;;;;;;10.17;9.77;;;15.40;99.90;;;;;;5116659;27;20460;-67
2023/06/17 05:40:18;;;;;;;10.50;10.10;;;15.60;99.90;;;;;;5102120;27;20481;-66
2023/06/17 05:42:45;;;;;;;10.20;9.80;;;15.70;99.90;;;;;;5098394;28;20457;-66
2023/06/17 05:45:12;;;;;;;10.90;10.50;;;15.90;99.90;;;;;;5099855;28;20464;-67
2023/06/17 05:47:38;;;;;;;10.20;9.80;;;16.00;99.90;;;;;;5098122;27;20475;-65
2023/06/17 05:50:06;;;;;;;10.50;10.10;;;16.20;99.90;;;;;;5093118;28;20554;-66
2023/06/17 05:52:33;;;;;;;10.50;10.10;;;16.40;99.90;;;;;;5088767;28;20457;-66
2023/06/17 05:54:59;;;;;;;10.87;10.47;;;16.50;99.90;;;;;;5099561;28;20453;-67
2023/06/17 05:57:28;;;;;;;10.80;10.40;;;16.70;99.90;;;;;;5094231;28;20462;-67
2023/06/17 05:59:55;;;;;;;10.83;10.43;;;16.90;99.90;;;;;;5103761;28;20471;-66
2023/06/17 06:02:21;;;;;;;11.63;11.23;;;17.10;99.90;;;;;;5100123;28;20457;-66
2023/06/17 06:04:48;;;;;;;11.03;10.63;;;17.20;99.90;;;;;;5102260;28;20870;-66
2023/06/17 06:07:16;;;;;;;11.70;11.20;;;17.50;99.90;;;;;;5097122;27;20511;-66
2023/06/17 06:09:43;;;;;;;11.27;10.87;;;17.60;99.90;;;;;;5100953;27;20473;-67
2023/06/17 06:12:10;;;;;;;11.10;10.70;;;17.80;99.90;;;;;;5107161;27;20522;-67
2023/06/17 06:14:38;;;;;;;11.27;10.87;;;17.90;99.90;;;;;;5104125;27;20453;-67
2023/06/17 06:17:06;;;;;;;11.60;11.20;;;18.00;99.90;;;;;;5103119;28;20481;-67
2023/06/17 06:19:33;;;;;;;11.80;11.40;;;18.20;99.90;;;;;;5102843;28;21180;-67
2023/06/17 06:22:01;;;;;;;11.93;11.53;;;18.30;99.90;;;;;;5103202;28;20492;-67
2023/06/17 06:24:27;;;;;;;11.83;11.43;;;18.50;99.90;;;;;;5090246;28;21234;-67
2023/06/17 06:26:54;;;;;;;11.80;11.40;;;18.60;99.90;;;;;;5111846;27;20850;-66
2023/06/17 06:29:22;;;;;;;12.00;11.60;;;18.80;99.90;;;;;;5109303;27;20714;-67
2023/06/17 06:31:50;;;;;;;12.43;11.93;;;18.90;99.90;;;;;;5100944;28;20859;-67
2023/06/17 06:34:17;;;;;;;12.50;12.00;;;19.00;99.90;;;;;;5117272;27;21053;-67
2023/06/17 06:36:44;;;;;;;12.23;11.73;;;19.10;99.90;;;;;;5107668;27;20453;-68
2023/06/17 06:39:11;;;;;;;12.83;12.33;;;19.30;99.90;;;;;;5105438;27;20459;-66
2023/06/17 06:41:39;;;;;;;12.80;12.30;;;19.50;99.90;;;;;;5100346;27;20485;-66
2023/06/17 06:44:05;;;;;;;12.40;11.90;;;19.60;99.90;;;;;;5092173;27;20557;-67
2023/06/17 06:46:33;;;;;;;13.00;12.50;;;19.80;99.90;;;;;;5110690;27;20459;-68
2023/06/17 06:49:02;;;;;;;14.80;14.10;;;20.00;99.90;;;;;;5109955;27;20462;-67
2023/06/17 06:51:29;;;;;;;13.60;13.00;;;20.10;99.90;;;;;;5097903;27;20845;-68
2023/06/17 06:53:57;;;;;;;13.37;12.87;;;20.30;99.90;;;;;;5095896;28;20450;-67
2023/06/17 06:56:24;;;;;;;14.60;13.90;;;20.60;99.90;;;;;;5108584;27;20947;-66
2023/06/17 06:58:51;;;;;;;13.00;12.50;;;20.70;99.90;;;;;;5100239;27;20467;-67
2023/06/17 07:01:18;;;;;;;15.53;14.83;;;20.80;99.90;;;;;;5109606;27;20453;-66
2023/06/17 07:03:47;;;;;;;13.50;13.00;;;21.00;99.90;;;;;;5116795;27;20964;-67
2023/06/17 07:06:17;;;;;;;13.60;13.00;;;21.10;99.90;;;;;;5101749;27;20838;-66
2023/06/17 07:08:45;;;;;;;14.17;13.57;;;21.20;99.90;;;;;;5100895;27;20488;-66
2023/06/17 07:11:12;;;;;;;14.20;13.60;;;21.30;99.90;;;;;;5109586;27;20471;-67
2023/06/17 07:13:40;;;;;;;15.30;14.60;;;21.50;99.90;;;;;;5099002;28;20464;-66
2023/06/17 07:16:07;;;;;;;13.83;13.23;;;21.70;99.90;;;;;;5111098;27;20967;-67
2023/06/17 07:18:35;;;;;;;13.53;13.03;;;21.80;99.90;;;;;;5105815;28;20469;-67
2023/06/17 07:21:02;;;;;;;14.83;14.23;;;22.00;99.90;;;;;;5099684;28;20465;-67
2023/06/17 07:23:31;;;;;;;14.20;13.60;;;22.10;99.90;;;;;;5105701;27;20466;-67
2023/06/17 07:25:58;;;;;;;13.53;13.03;;;22.30;99.90;;;;;;5106794;27;20797;-67
2023/06/17 07:28:25;;;;;;;13.50;13.00;;;22.40;99.90;;;;;;5105448;27;20473;-68
2023/06/17 07:30:52;;;;;;;14.33;13.73;;;22.40;99.90;;;;;;5104462;27;20484;-67
2023/06/17 07:33:21;;;;;;;13.40;12.90;;;22.50;99.90;;;;;;5115200;27;20460;-67
2023/06/17 07:35:47;;;;;;;13.70;13.20;;;22.50;99.90;;;;;;5111639;27;20472;-67
2023/06/17 07:38:15;;;;;;;14.13;13.53;;;22.60;99.90;;;;;;5107339;27;20833;-67
2023/06/17 07:40:46;;;;;;;14.00;13.40;;;22.80;99.90;;;;;;5097219;27;20505;-67
2023/06/17 07:43:13;;;;;;;13.70;13.20;;;23.00;99.90;;;;;;5119514;27;20464;-67
2023/06/17 07:45:40;;;;;;;13.90;13.30;;;23.10;99.90;;;;;;5109173;27;20465;-67
2023/06/17 07:48:07;;;;;;;14.20;13.60;;;23.30;99.90;;;;;;5106889;27;20901;-68
2023/06/17 07:50:33;;;;;;;13.93;13.40;;;23.30;99.90;;;;;;5099228;27;20481;-68
2023/06/17 07:53:00;;;;;;;13.50;13.00;;;23.50;99.90;;;;;;5120299;27;20464;-67
2023/06/17 07:55:28;;;;;;;13.90;13.30;;;23.60;99.90;;;;;;5104797;27;20839;-67
2023/06/17 07:57:58;;;;;;;13.87;13.37;;;23.70;99.90;;;;;;5094877;27;20883;-67
2023/06/17 08:00:24;;;;;;;14.00;13.40;;;23.60;99.90;;;;;;5106398;27;20453;-67
2023/06/17 08:02:51;;;;;;;14.60;13.90;;;23.90;99.90;;;;;;5118520;27;20460;-67
2023/06/17 08:05:18;;;;;;;14.30;13.70;;;24.70;99.90;;;;;;5112263;27;20464;-67
2023/06/17 08:07:46;;;;;;;14.23;13.63;;;25.50;99.90;;;;;;5102210;27;20469;-68
2023/06/17 08:10:14;;;;;;;14.77;14.17;;;26.10;96.70;;;;;;5111632;27;20488;-68
2023/06/17 08:12:40;;;;;;;14.23;13.63;;;27.00;94.90;;;;;;5099366;27;20968;-68
2023/06/17 08:15:10;;;;;;;15.90;15.20;;;28.10;90.80;;;;;;5097319;27;20945;-67
2023/06/17 08:17:37;;;;;;;14.43;13.83;;;28.40;90.40;;;;;;5101559;27;20462;-68
2023/06/17 08:20:04;;;;;;;15.27;14.67;;;28.40;84.60;;;;;;5108504;27;20471;-68
2023/06/17 08:22:31;;;;;;;14.70;14.10;;;29.00;82.90;;;;;;5106844;27;20544;-67
2023/06/17 08:24:58;;;;;;;14.80;14.20;;;29.70;76.30;;;;;;5106399;27;20564;-68
2023/06/17 08:27:28;;;;;;;14.50;13.90;;;29.80;69.80;;;;;;5099039;27;20461;-67
2023/06/17 08:29:55;;;;;;;15.13;14.53;;;30.30;66.40;;;;;;5120324;27;20460;-69
2023/06/17 08:32:23;;;;;;;14.60;14.00;;;29.80;60.10;;;;;;5121671;27;20451;-67
2023/06/17 08:34:50;;;;;;;14.60;14.00;;;30.40;58.80;;;;;;5101764;27;20462;-68
2023/06/17 08:37:17;;;;;;;14.80;14.20;;;30.90;55.40;;;;;;5112926;27;20550;-68
2023/06/17 08:39:44;;;;;;;14.93;14.33;;;30.90;53.10;;;;;;5110403;27;20494;-68
2023/06/17 08:42:10;;;;;;;14.70;14.10;;;30.80;51.00;;;;;;5100518;27;20457;-68
2023/06/17 08:44:43;;;;;;;14.87;14.27;;;31.20;51.80;;;;;;5091443;27;20489;-67
2023/06/17 08:47:15;;;;;;;14.93;14.33;;;31.00;53.30;;;;;;5093731;27;20969;-69
2023/06/17 08:49:46;;;;;;;14.90;14.30;;;30.40;53.30;;;;;;5100457;27;20496;-69
2023/06/17 08:52:14;;;;;;;14.30;13.70;;;30.90;53.10;;;;;;5095976;27;20897;-68
2023/06/17 08:54:43;;;;;;;14.60;14.00;;;31.40;52.20;;;;;;5103262;27;20489;-68
2023/06/17 08:57:12;;;;;;;13.90;13.40;;;31.90;50.90;;;;;;5089715;28;20462;-68
2023/06/17 08:59:39;;;;;;;13.93;13.43;;;31.50;50.20;;;;;;5115449;27;21018;-68
2023/06/17 09:02:06;;;;;;;14.50;13.90;;;30.90;50.50;;;;;;5107642;27;20830;-68
2023/06/17 09:04:34;;;;;;;15.10;14.50;;;30.80;51.70;;;;;;5099555;27;20800;-68
2023/06/17 09:07:04;;;;;;;27.53;16.50;;;31.30;50.30;;;;;;5109609;27;20480;-67
2023/06/17 09:09:31;;;;;;;15.90;15.20;;;31.00;50.20;;;;;;5115135;27;20474;-69
2023/06/17 09:12:04;;;;;;;14.77;14.17;;;30.00;51.00;;;;;;5106104;27;20477;-68
2023/06/17 09:14:32;;;;;;;13.83;13.33;;;30.20;51.70;;;;;;5123264;27;20453;-69
2023/06/17 09:17:00;;;;;;;14.83;14.23;;;29.50;51.20;;;;;;5107172;27;20901;-68
2023/06/17 09:19:31;;;;;;;15.40;14.23;;;29.40;52.20;;;;;;5107179;27;20458;-69
2023/06/17 09:22:07;;;;;;;15.10;14.50;;;29.60;51.90;;;;;;5106978;28;20465;-69
2023/06/17 09:24:33;;;;;;;14.80;14.20;;;30.00;51.00;;;;;;5091495;27;20489;-68
2023/06/17 09:27:02;;;;;;;14.40;13.80;;;30.20;52.30;;;;;;5111556;27;20801;-68
2023/06/17 09:29:31;;;;;;;13.70;13.20;;;29.90;51.50;;;;;;5127725;27;20448;-68
2023/06/17 09:32:01;;;;;;;15.03;14.43;;;31.20;51.10;;;;;;5125105;27;20495;-68
2023/06/17 09:34:28;;;;;;;14.50;13.90;;;31.60;49.50;;;;;;5098247;27;20465;-69
2023/06/17 09:36:59;;;;;;;14.87;14.27;;;31.50;49.20;;;;;;5112334;27;20462;-67
2023/06/17 09:39:31;;;;;;;15.07;14.47;;;32.20;48.70;;;;;;5108512;27;20592;-68
2023/06/17 09:41:58;;;;;;;14.70;14.10;;;32.40;47.50;;;;;;5120815;27;20513;-69
2023/06/17 09:44:26;;;;;;;14.17;13.60;;;32.10;48.70;;;;;;5112392;27;20677;-69
2023/06/17 09:46:55;;;;;;;14.33;13.73;;;31.00;48.80;;;;;;5107756;27;20462;-69
2023/06/17 09:49:23;;;;;;;15.87;14.97;;;31.60;50.10;;;;;;5112743;28;20968;-69
2023/06/17 09:51:51;;;;;;;14.13;13.63;;;31.10;47.40;;;;;;5099367;27;20493;-70
2023/06/17 09:54:19;;;;;;;14.63;14.03;;;31.10;50.50;;;;;;5099135;28;20453;-67
2023/06/17 09:56:50;;;;;;;14.77;14.17;;;31.70;49.40;;;;;;5115159;27;20464;-69
2023/06/17 09:59:21;;;;;;;14.63;14.03;;;32.40;47.80;;;;;;5111578;28;21348;-69
2023/06/17 10:01:48;;;;;;;15.90;15.20;;;32.50;47.90;;;;;;5101479;28;20454;-68
2023/06/17 10:04:15;;;;;;;14.33;13.73;;;33.20;47.70;;;;;;5092487;28;20493;-69
2023/06/17 10:06:47;;;;;;;13.20;12.70;;;33.00;46.70;;;;;;5107324;28;20543;-69
2023/06/17 10:09:14;;;;;;;14.53;13.93;;;33.10;47.40;;;;;;5097760;28;20886;-68
2023/06/17 10:11:45;;;;;;;14.20;13.70;;;33.00;47.20;;;;;;5096213;28;20489;-69
2023/06/17 10:14:20;;;;;;;13.90;13.40;;;32.60;47.90;;;;;;5099020;28;20948;-68
2023/06/17 10:16:49;;;;;;;15.17;14.37;;;32.60;48.30;;;;;;5089510;28;20743;-68
2023/06/17 10:19:21;;;;;;;13.70;13.20;;;32.50;47.10;;;;;;5110228;28;20841;-70
2023/06/17 10:21:51;;;;;;;14.10;13.60;;;32.80;46.80;;;;;;5120506;28;20449;-69
2023/06/17 10:24:19;;;;;;;14.60;14.00;;;32.50;46.50;;;;;;5107504;28;20958;-69
2023/06/17 10:26:51;;;;;;;15.10;14.40;;;32.80;47.50;;;;;;5102775;28;20453;-69
2023/06/17 10:29:20;;;;;;;14.73;14.13;;;32.10;47.30;;;;;;5093665;28;20465;-68
2023/06/17 10:31:47;;;;;;;14.83;14.17;;;31.90;48.00;;;;;;5097143;28;20493;-69
2023/06/17 10:34:15;;;;;;;15.27;14.60;;;31.00;47.70;;;;;;5114602;28;20464;-68
2023/06/17 10:36:43;;;;;;;13.27;12.77;;;31.30;47.20;;;;;;5119825;28;20453;-68
2023/06/17 10:39:11;;;;;;;14.10;13.50;;;31.80;47.40;;;;;;5104774;28;20465;-69
2023/06/17 10:41:57;;;;;;;14.53;13.93;;;32.50;47.40;;;;;;5110106;28;20825;-69
2023/06/17 10:44:43;;;;;;;15.43;14.73;;;32.10;46.60;;;;;;5097457;28;21076;-69
2023/06/17 10:47:21;;;;;;;14.70;14.00;;;33.10;45.40;;;;;;5090830;28;20454;-68
2023/06/17 10:49:49;;;;;;;14.70;14.10;;;33.50;45.40;;;;;;5106819;28;20553;-69
2023/06/17 10:52:17;;;;;;;15.57;14.50;;;33.40;44.90;;;;;;5104945;27;20569;-69
2023/06/17 10:54:46;;;;;;;17.67;16.57;;;34.00;44.50;;;;;;5104447;27;21030;-69
2023/06/17 10:57:14;;;;;;;15.10;14.50;;;32.60;44.90;;;;;;5104444;27;20558;-68
2023/06/17 10:59:41;;;;;;;15.10;14.50;;;32.10;45.10;;;;;;5101057;27;20951;-68
2023/06/17 11:02:09;;;;;;;14.53;13.93;;;32.90;46.00;;;;;;5110651;27;20459;-68
2023/06/17 11:04:40;;;;;;;15.10;14.40;;;33.40;43.90;;;;;;5119793;27;20534;-69
2023/06/17 11:07:08;;;;;;;15.67;15.00;;;34.10;44.10;;;;;;5122516;27;21065;-68
2023/06/17 11:09:36;;;;;;;15.87;14.67;;;33.30;43.40;;;;;;5102317;27;20918;-69
2023/06/17 11:12:03;;;;;;;14.77;14.17;;;33.10;44.90;;;;;;5104035;27;21008;-70
2023/06/17 11:14:32;;;;;;;14.63;14.03;;;32.90;43.50;;;;;;5111091;27;20464;-68
2023/06/17 11:16:59;;;;;;;14.13;13.60;;;33.10;42.80;;;;;;5116277;27;20878;-70
2023/06/17 11:19:27;;;;;;;15.13;14.53;;;33.60;41.10;;;;;;5117206;27;20465;-70
2023/06/17 11:22:03;;;;;;;15.90;15.10;;;34.00;39.50;;;;;;5101924;27;21016;-70
2023/06/17 11:24:30;;;;;;;14.37;13.80;;;34.30;38.50;;;;;;5101484;27;20491;-70
2023/06/17 11:26:58;;;;;;;14.77;14.17;;;34.20;40.00;;;;;;5108274;27;20452;-68
2023/06/17 11:29:26;;;;;;;14.30;13.70;;;35.40;39.80;;;;;;5120119;27;20462;-69
2023/06/17 11:31:54;;;;;;;15.13;14.33;;;35.70;37.90;;;;;;5091749;27;20492;-68
2023/06/17 11:34:22;;;;;;;15.10;14.50;;;35.60;39.50;;;;;;5110483;27;20514;-69
2023/06/17 11:36:53;;;;;;;14.47;13.87;;;35.20;39.20;;;;;;5113808;27;20509;-69
2023/06/17 11:39:22;;;;;;;14.83;14.23;;;35.50;39.70;;;;;;5108613;27;20736;-68
2023/06/17 11:41:49;;;;;;;15.67;14.97;;;35.60;39.10;;;;;;5092967;28;20470;-69
2023/06/17 11:44:16;;;;;;;14.90;14.30;;;36.10;39.70;;;;;;5104351;27;20804;-69
2023/06/17 11:46:43;;;;;;;14.13;13.60;;;35.80;38.50;;;;;;5097539;28;20827;-69
2023/06/17 11:49:10;;;;;;;14.17;13.60;;;34.60;38.00;;;;;;5092566;28;20473;-69
2023/06/17 11:51:38;;;;;;;14.30;13.70;;;33.90;39.20;;;;;;5119971;27;20481;-69
2023/06/17 11:54:09;;;;;;;16.00;15.20;;;34.30;40.50;;;;;;5111002;27;20508;-69
2023/06/17 11:56:36;;;;;;;15.27;14.60;;;35.10;39.20;;;;;;5120886;27;20500;-69
2023/06/17 11:59:03;;;;;;;15.83;15.03;;;34.40;39.40;;;;;;5121106;27;20460;-68
2023/06/17 12:01:30;;;;;;;15.30;14.70;;;34.60;40.40;;;;;;5100179;27;21229;-69
2023/06/17 12:03:57;;;;;;;15.33;14.70;;;34.30;39.50;;;;;;5121281;27;20471;-69
2023/06/17 12:06:27;;;;;;;13.50;13.00;;;34.90;39.40;;;;;;5115514;27;20549;-69
2023/06/17 12:08:58;;;;;;;13.97;13.47;;;35.60;39.10;;;;;;5106337;27;20971;-69
2023/06/17 12:11:29;;;;;;;14.00;13.40;;;36.40;38.90;;;;;;5123165;27;20457;-69
2023/06/17 12:13:57;;;;;;;14.03;13.53;;;36.20;38.10;;;;;;5112378;27;20838;-69
2023/06/17 12:16:24;;;;;;;13.73;13.23;;;37.10;36.30;;;;;;5095588;27;20839;-69
2023/06/17 12:18:51;;;;;;;14.53;13.93;;;37.70;34.90;;;;;;5087926;27;20588;-69
2023/06/17 12:21:20;;;;;;;12.90;12.40;;;38.00;34.60;;;;;;5091646;27;20457;-69
2023/06/17 12:23:48;;;;;;;14.87;14.27;;;38.00;35.00;;;;;;5098814;28;20553;-69
2023/06/17 12:26:16;;;;;;;13.83;13.33;;;37.90;35.40;;;;;;5101066;27;20457;-69
2023/06/17 12:28:46;;;;;;;13.53;13.03;;;37.60;35.90;;;;;;5113143;27;20780;-69
2023/06/17 12:31:13;;;;;;;13.53;13.03;;;38.30;36.40;;;;;;5096508;27;20463;-69
2023/06/17 12:33:40;;;;;;;14.10;13.50;;;38.30;36.60;;;;;;5093984;27;20932;-69
2023/06/17 12:36:07;;;;;;;14.00;13.40;;;37.90;35.10;;;;;;5085600;27;20465;-69
2023/06/17 12:38:35;;;;;;;13.33;12.83;;;35.80;36.70;;;;;;5101553;27;20525;-69